createdAt,value
2023-03-10T16:24:35.581Z,12.80
2023-03-10T16:25:35.628Z,15.60
2023-03-10T16:26:35.610Z,13.40
2023-03-10T16:27:35.503Z,19.00
2023-03-10T16:28:35.713Z,16.10
2023-03-10T16:29:35.513Z,18.30
2023-03-10T16:30:35.682Z,39.90
2023-03-10T16:31:37.061Z,39.40
2023-03-10T16:32:36.776Z,52.70
2023-03-10T16:33:36.776Z,63.50
2023-03-10T16:34:36.857Z,72.60
2023-03-10T16:35:37.173Z,145.80
2023-03-10T16:36:36.641Z,128.50
2023-03-10T16:37:36.716Z,127.40
2023-03-10T16:38:36.692Z,118.90
2023-03-10T16:39:36.913Z,106.30
2023-03-10T16:40:36.615Z,90.10
2023-03-10T16:41:36.992Z,104.30
2023-03-10T16:42:36.764Z,99.60
2023-03-10T16:43:37.128Z,109.30
2023-03-10T16:44:36.886Z,106.00
2023-03-10T16:45:36.702Z,112.80
2023-03-10T16:46:36.983Z,117.70
2023-03-10T16:47:36.688Z,132.90
2023-03-10T16:48:36.811Z,132.00
2023-03-10T16:49:36.725Z,131.60
2023-03-10T16:50:36.689Z,158.70
2023-03-10T16:51:36.635Z,170.70
2023-03-10T16:52:36.894Z,133.50
2023-03-10T16:53:36.601Z,137.60
2023-03-10T16:54:36.774Z,192.40
2023-03-10T16:55:36.624Z,187.40
2023-03-10T16:56:36.586Z,203.80
2023-03-10T16:57:36.981Z,246.90
2023-03-10T16:58:36.552Z,276.10
2023-03-10T16:59:36.617Z,249.40
2023-03-10T17:00:36.547Z,212.00
2023-03-10T17:01:36.610Z,186.30
2023-03-10T17:02:36.440Z,186.90
2023-03-10T17:03:36.594Z,179.90
2023-03-10T17:04:36.481Z,169.10
2023-03-10T17:05:36.658Z,181.80
2023-03-10T17:06:36.527Z,186.60
2023-03-10T17:07:43.418Z,191.50
2023-03-10T17:08:38.426Z,249.90
2023-03-10T17:09:36.370Z,244.50
2023-03-10T17:10:36.514Z,350.20
2023-03-10T17:11:36.613Z,319.90
2023-03-10T17:12:36.590Z,289.10
2023-03-10T17:13:36.731Z,294.70
2023-03-10T17:14:36.477Z,228.70
2023-03-10T17:15:36.437Z,171.60
2023-03-10T17:16:36.503Z,159.90
2023-03-10T17:17:36.529Z,177.50
2023-03-10T17:18:36.543Z,197.60
2023-03-10T17:19:36.657Z,224.40
2023-03-10T17:20:36.495Z,235.30
2023-03-10T17:21:36.714Z,268.40
2023-03-10T17:22:37.867Z,167.50
2023-03-10T17:23:37.585Z,388.20
2023-03-10T17:24:37.146Z,380.50
2023-03-10T17:25:37.961Z,361.90
2023-03-10T17:26:36.535Z,336.50
2023-03-10T17:27:36.282Z,324.70
2023-03-10T17:28:36.264Z,324.30
2023-03-10T17:29:36.236Z,305.70
2023-03-10T17:30:36.222Z,316.00
2023-03-10T17:31:36.753Z,295.70
2023-03-10T17:32:36.493Z,287.00
2023-03-10T17:33:36.320Z,280.50
2023-03-10T17:34:36.155Z,325.20
2023-03-10T17:35:36.258Z,366.90
2023-03-10T17:36:36.273Z,314.40
2023-03-10T17:37:36.556Z,316.60
2023-03-10T17:38:36.400Z,318.00
2023-03-10T17:39:36.324Z,322.50
2023-03-10T17:40:36.360Z,277.40
2023-03-10T17:41:36.276Z,258.80
2023-03-10T17:42:36.391Z,273.90
2023-03-10T17:43:36.293Z,249.00
2023-03-10T17:44:36.227Z,293.70
2023-03-10T17:45:36.469Z,266.20
2023-03-10T17:46:36.399Z,293.10
2023-03-10T17:47:36.215Z,310.20
2023-03-10T17:48:36.664Z,356.60
2023-03-10T17:49:36.876Z,306.70
2023-03-10T17:50:36.712Z,302.60
2023-03-10T17:51:38.137Z,294.10
2023-03-10T17:52:36.501Z,298.80
2023-03-10T17:53:36.549Z,303.30
2023-03-10T17:54:36.801Z,252.70
2023-03-10T17:55:36.296Z,326.40
2023-03-10T17:56:36.722Z,269.70
2023-03-10T17:57:38.176Z,300.50
2023-03-10T17:58:36.723Z,307.70
2023-03-10T17:59:36.415Z,306.50
2023-03-10T18:00:36.574Z,227.70
2023-03-10T18:01:36.840Z,234.70
2023-03-10T18:02:37.771Z,236.00
2023-03-10T18:03:36.479Z,241.60
2023-03-10T18:04:36.158Z,229.00
2023-03-10T18:05:36.247Z,263.40
2023-03-10T18:06:36.289Z,246.90
2023-03-10T18:07:36.499Z,278.40
2023-03-10T18:08:36.704Z,278.40
2023-03-10T18:09:36.721Z,201.10
2023-03-10T18:10:36.622Z,226.60
2023-03-10T18:11:36.679Z,185.90
2023-03-10T18:12:36.410Z,181.30
2023-03-10T18:13:36.757Z,189.70
2023-03-10T18:14:36.361Z,197.80
2023-03-10T18:15:36.370Z,376.20
2023-03-10T18:16:36.575Z,314.90
2023-03-10T18:17:36.435Z,195.30
2023-03-10T18:18:36.671Z,193.50
2023-03-10T18:19:36.652Z,187.60
2023-03-10T18:20:36.249Z,186.30
2023-03-10T18:21:36.368Z,173.40
2023-03-10T18:22:36.018Z,188.50
2023-03-10T18:23:36.670Z,192.10
2023-03-10T18:24:37.069Z,202.30
2023-03-10T18:25:36.527Z,254.40
2023-03-10T18:26:36.638Z,239.90
2023-03-10T18:27:36.661Z,234.30
2023-03-10T18:28:36.452Z,307.10
2023-03-10T18:29:36.486Z,468.90
2023-03-10T18:30:36.627Z,472.20
2023-03-10T18:31:36.476Z,446.90
2023-03-10T18:32:36.438Z,479.20
2023-03-10T18:33:36.553Z,488.50
2023-03-10T18:34:36.551Z,462.50
2023-03-10T18:35:37.732Z,459.50
2023-03-10T18:36:36.600Z,439.80
2023-03-10T18:37:36.327Z,477.90
2023-03-10T18:38:36.212Z,452.20
2023-03-10T18:39:36.431Z,518.60
2023-03-10T18:40:36.402Z,507.00
2023-03-10T18:41:36.389Z,474.20
2023-03-10T18:42:35.950Z,451.50
2023-03-10T18:43:36.339Z,479.20
2023-03-10T18:44:36.383Z,369.40
2023-03-10T18:45:36.292Z,378.50
2023-03-10T18:46:36.465Z,396.50
2023-03-10T18:47:36.387Z,374.50
2023-03-10T18:48:36.201Z,435.60
2023-03-10T18:49:36.213Z,423.00
2023-03-10T18:50:36.417Z,435.80
2023-03-10T18:51:36.832Z,389.90
2023-03-10T18:52:36.436Z,413.40
2023-03-10T18:53:36.503Z,378.70
2023-03-10T18:54:36.248Z,324.60
2023-03-10T18:55:36.440Z,373.80
2023-03-10T18:56:36.291Z,361.70
2023-03-10T18:57:36.494Z,352.00
2023-03-10T18:58:36.350Z,347.60
2023-03-10T18:59:36.123Z,194.70
2023-03-10T19:00:36.279Z,126.80
2023-03-10T19:01:36.268Z,134.60
2023-03-10T19:02:36.451Z,165.90
2023-03-10T19:03:36.369Z,166.00
2023-03-10T19:04:36.355Z,168.80
2023-03-10T19:05:36.349Z,147.70
2023-03-10T19:06:36.355Z,120.20
2023-03-10T19:07:36.372Z,161.20
2023-03-10T19:08:36.549Z,145.60
2023-03-10T19:09:36.251Z,161.40
2023-03-10T19:10:36.321Z,191.50
2023-03-10T19:11:36.278Z,206.30
2023-03-10T19:12:36.257Z,245.20
2023-03-10T19:13:36.084Z,239.60
2023-03-10T19:14:36.304Z,227.10
2023-03-10T19:15:36.299Z,244.00
2023-03-10T19:16:36.045Z,238.00
2023-03-10T19:17:37.202Z,314.60
2023-03-10T19:18:37.002Z,362.40
2023-03-10T19:19:35.769Z,323.50
2023-03-10T19:20:35.983Z,265.50
2023-03-10T19:21:36.193Z,196.00
2023-03-10T19:22:37.140Z,196.70
2023-03-10T19:23:36.198Z,303.00
2023-03-10T19:24:36.523Z,371.30
2023-03-10T19:25:36.169Z,303.30
2023-03-10T19:26:36.128Z,560.80
2023-03-10T19:27:35.847Z,673.00
2023-03-10T19:28:36.250Z,647.40
2023-03-10T19:29:36.813Z,563.60
2023-03-10T19:30:36.067Z,621.50
2023-03-10T19:31:37.278Z,556.80
2023-03-10T19:32:36.029Z,606.50
2023-03-10T19:33:35.864Z,640.80
2023-03-10T19:34:35.950Z,607.90
2023-03-10T19:35:36.078Z,630.20
2023-03-10T19:36:36.063Z,600.10
2023-03-10T19:37:35.912Z,474.10
2023-03-10T19:38:36.048Z,574.80
2023-03-10T19:39:36.115Z,595.90
2023-03-10T19:40:36.353Z,688.80
2023-03-10T19:41:36.091Z,619.00
2023-03-10T19:42:35.948Z,593.30
2023-03-10T19:43:36.082Z,598.30
2023-03-10T19:44:36.010Z,519.80
2023-03-10T19:45:35.866Z,477.60
2023-03-10T19:46:36.367Z,528.50
2023-03-10T19:47:35.943Z,523.90
2023-03-10T19:48:36.012Z,536.80
2023-03-10T19:49:37.093Z,563.70
2023-03-10T19:50:35.846Z,580.10
2023-03-10T19:51:37.200Z,614.80
2023-03-10T19:52:35.703Z,578.10
2023-03-10T19:53:35.976Z,509.60
2023-03-10T19:54:36.041Z,471.40
2023-03-10T19:55:35.935Z,648.70
2023-03-10T19:56:36.007Z,476.40
2023-03-10T19:57:37.274Z,506.60
2023-03-10T19:58:35.985Z,557.70
2023-03-10T19:59:35.946Z,505.10
2023-03-10T20:00:36.440Z,525.50
2023-03-10T20:01:35.994Z,548.00
2023-03-10T20:02:36.278Z,512.50
2023-03-10T20:03:36.937Z,554.40
2023-03-10T20:04:36.895Z,542.90
2023-03-10T20:05:35.675Z,579.60
2023-03-10T20:06:35.647Z,466.70
2023-03-10T20:07:35.849Z,470.40
2023-03-10T20:08:36.022Z,441.90
2023-03-10T20:09:37.039Z,406.30
2023-03-10T20:10:35.809Z,398.70
2023-03-10T20:11:35.855Z,465.00
2023-03-10T20:12:35.766Z,464.10
2023-03-10T20:13:35.895Z,488.00
2023-03-10T20:14:35.724Z,556.50
2023-03-10T20:15:35.901Z,608.60
2023-03-10T20:16:35.926Z,710.90
2023-03-10T20:17:35.845Z,667.80
2023-03-10T20:18:35.878Z,761.90
2023-03-10T20:19:36.054Z,802.00
2023-03-10T20:20:35.845Z,847.50
2023-03-10T20:21:35.670Z,815.70
2023-03-10T20:22:35.266Z,862.30
2023-03-10T20:23:36.476Z,847.10
2023-03-10T20:24:35.769Z,835.50
2023-03-10T20:25:36.821Z,897.50
2023-03-10T20:26:35.643Z,911.60
2023-03-10T20:27:35.493Z,916.00
2023-03-10T20:28:35.454Z,910.80
2023-03-10T20:29:35.774Z,935.00
2023-03-10T20:30:35.960Z,953.90
2023-03-10T20:31:35.673Z,899.30
2023-03-10T20:32:35.820Z,919.60
2023-03-10T20:33:35.735Z,910.10
2023-03-10T20:34:35.476Z,840.00
2023-03-10T20:35:35.730Z,861.90
2023-03-10T20:36:35.383Z,931.90
2023-03-10T20:37:35.522Z,915.90
2023-03-10T20:38:35.332Z,837.90
2023-03-10T20:39:35.646Z,892.20
2023-03-10T20:40:35.421Z,810.00
2023-03-10T20:41:35.694Z,811.80
2023-03-10T20:42:35.341Z,803.40
2023-03-10T20:43:35.347Z,778.50
2023-03-10T20:44:35.292Z,700.70
2023-03-10T20:45:35.529Z,573.60
2023-03-10T20:46:35.403Z,714.40
2023-03-10T20:47:35.034Z,724.60
2023-03-10T20:48:35.487Z,594.20
2023-03-10T20:49:35.356Z,686.30
2023-03-10T20:50:35.169Z,757.50
2023-03-10T20:51:35.372Z,802.00
2023-03-10T20:52:35.656Z,813.60
2023-03-10T20:53:35.244Z,781.60
2023-03-10T20:54:35.282Z,801.90
2023-03-10T20:55:35.187Z,842.00
2023-03-10T20:56:35.389Z,810.50
2023-03-10T20:57:35.185Z,809.40
2023-03-10T20:58:35.288Z,769.50
2023-03-10T20:59:35.460Z,779.00
2023-03-10T21:00:36.093Z,766.10
2023-03-10T21:01:35.591Z,834.70
2023-03-10T21:02:35.714Z,782.40
2023-03-10T21:03:35.526Z,895.40
2023-03-10T21:04:35.489Z,788.30
2023-03-10T21:05:35.329Z,888.00
2023-03-10T21:06:35.278Z,1108.80
2023-03-10T21:07:34.938Z,1206.20
2023-03-10T21:08:35.559Z,1222.40
2023-03-10T21:09:35.143Z,1207.30
2023-03-10T21:10:35.346Z,1211.90
2023-03-10T21:11:35.365Z,1184.50
2023-03-10T21:12:35.395Z,1065.30
2023-03-10T21:13:35.375Z,1051.00
2023-03-10T21:14:35.244Z,1018.00
2023-03-10T21:15:35.349Z,1127.70
2023-03-10T21:16:35.258Z,1145.80
2023-03-10T21:17:35.204Z,1140.80
2023-03-10T21:18:35.116Z,1118.50
2023-03-10T21:19:35.464Z,1099.30
2023-03-10T21:20:35.334Z,1092.30
2023-03-10T21:21:35.090Z,1082.60
2023-03-10T21:22:35.023Z,1076.90
2023-03-10T21:23:35.103Z,1122.60
2023-03-10T21:24:34.953Z,1067.50
2023-03-10T21:25:35.044Z,1124.70
2023-03-10T21:26:35.105Z,1105.50
2023-03-10T21:27:35.076Z,1114.30
2023-03-10T21:28:35.315Z,1074.30
2023-03-10T21:29:35.067Z,1078.60
2023-03-10T21:30:35.548Z,1082.80
2023-03-10T21:31:35.183Z,1087.50
2023-03-10T21:32:35.136Z,1086.40
2023-03-10T21:33:34.812Z,1063.20
2023-03-10T21:34:34.951Z,1070.70
2023-03-10T21:35:35.773Z,1092.70
2023-03-10T21:36:35.122Z,1085.10
2023-03-10T21:37:37.588Z,1071.30
2023-03-10T21:38:36.149Z,1076.00
2023-03-10T21:39:34.951Z,1084.00
2023-03-10T21:40:35.120Z,1084.90
2023-03-10T21:41:35.034Z,1097.80
2023-03-10T21:42:35.009Z,902.40
2023-03-10T21:43:35.110Z,924.00
2023-03-10T21:44:35.068Z,915.60
2023-03-10T21:45:34.936Z,929.10
2023-03-10T21:46:35.308Z,904.10
2023-03-10T21:47:34.937Z,888.50
2023-03-10T21:48:35.210Z,877.70
2023-03-10T21:49:35.096Z,872.70
2023-03-10T21:50:35.192Z,868.70
2023-03-10T21:51:35.124Z,865.80
2023-03-10T21:52:35.039Z,869.60
2023-03-10T21:53:35.162Z,877.10
2023-03-10T21:54:34.806Z,912.00
2023-03-10T21:55:35.014Z,942.60
2023-03-10T21:56:34.926Z,942.30
2023-03-10T21:57:34.963Z,943.90
2023-03-10T21:58:34.472Z,917.50
2023-03-10T21:59:34.903Z,883.40
2023-03-10T22:00:34.869Z,950.90
2023-03-10T22:01:35.070Z,949.90
2023-03-10T22:02:34.928Z,915.10
2023-03-10T22:03:35.537Z,937.70
2023-03-10T22:04:34.980Z,950.10
2023-03-10T22:05:34.538Z,953.80
2023-03-10T22:06:34.596Z,932.10
2023-03-10T22:07:34.522Z,932.60
2023-03-10T22:08:35.048Z,935.70
2023-03-10T22:09:34.718Z,954.10
2023-03-10T22:10:34.973Z,961.50
2023-03-10T22:11:34.991Z,942.20
2023-03-10T22:12:34.903Z,988.10
2023-03-10T22:13:34.714Z,967.60
2023-03-10T22:14:35.064Z,974.00
2023-03-10T22:15:34.391Z,969.50
2023-03-10T22:16:34.880Z,963.10
2023-03-10T22:17:34.518Z,966.00
2023-03-10T22:18:34.803Z,952.20
2023-03-10T22:19:34.937Z,970.90
2023-03-10T22:20:34.795Z,966.50
2023-03-10T22:21:34.496Z,973.00
2023-03-10T22:22:34.638Z,973.00
2023-03-10T22:23:34.349Z,973.50
2023-03-10T22:24:34.369Z,981.00
2023-03-10T22:25:34.288Z,965.30
2023-03-10T22:26:34.376Z,974.00
2023-03-10T22:27:34.546Z,984.20
2023-03-10T22:28:34.829Z,962.80
2023-03-10T22:29:34.672Z,976.80
2023-03-10T22:30:34.875Z,958.00
2023-03-10T22:31:34.488Z,950.70
2023-03-10T22:32:34.826Z,968.90
2023-03-10T22:33:34.444Z,965.60
2023-03-10T22:34:34.277Z,973.20
2023-03-10T22:35:34.528Z,965.90
2023-03-10T22:36:34.591Z,974.40
2023-03-10T22:37:34.270Z,964.10
2023-03-10T22:38:34.298Z,956.70
2023-03-10T22:39:34.190Z,963.30
2023-03-10T22:40:34.184Z,970.20
2023-03-10T22:41:34.204Z,962.60
2023-03-10T22:42:35.234Z,964.00
2023-03-10T22:43:34.141Z,956.40
2023-03-10T22:44:34.048Z,959.60
2023-03-10T22:45:34.056Z,969.70
2023-03-10T22:46:34.050Z,940.00
2023-03-10T22:47:34.236Z,944.20
2023-03-10T22:48:34.043Z,943.30
2023-03-10T22:49:34.003Z,977.70
2023-03-10T22:50:35.091Z,984.30
2023-03-10T22:51:34.035Z,989.30
2023-03-10T22:52:34.147Z,998.50
2023-03-10T22:53:35.300Z,953.70
2023-03-10T22:54:33.945Z,927.00
2023-03-10T22:55:34.064Z,938.80
2023-03-10T22:56:34.052Z,959.90
2023-03-10T22:57:34.042Z,966.80
2023-03-10T22:58:34.162Z,986.40
2023-03-10T22:59:34.087Z,925.80
2023-03-10T23:00:34.065Z,920.00
2023-03-10T23:01:34.084Z,960.80
2023-03-10T23:02:34.182Z,949.00
2023-03-10T23:03:34.133Z,949.50
2023-03-10T23:04:34.120Z,942.20
2023-03-10T23:05:33.964Z,946.20
2023-03-10T23:06:34.030Z,946.10
2023-03-10T23:07:33.971Z,932.00
2023-03-10T23:08:33.956Z,946.20
2023-03-10T23:09:34.040Z,961.10
2023-03-10T23:10:33.936Z,946.50
2023-03-10T23:11:34.075Z,963.70
2023-03-10T23:12:33.845Z,964.10
2023-03-10T23:13:33.853Z,966.50
2023-03-10T23:14:33.859Z,959.00
2023-03-10T23:15:33.928Z,989.20
2023-03-10T23:16:33.881Z,992.50
2023-03-10T23:17:33.916Z,996.40
2023-03-10T23:18:33.883Z,967.60
2023-03-10T23:19:33.954Z,986.00
2023-03-10T23:20:33.929Z,1008.00
2023-03-10T23:21:33.794Z,967.10
2023-03-10T23:22:33.902Z,966.20
2023-03-10T23:23:33.923Z,1018.70
2023-03-10T23:24:33.835Z,969.60
2023-03-10T23:25:33.995Z,961.70
2023-03-10T23:26:33.816Z,993.90
2023-03-10T23:27:33.914Z,969.10
2023-03-10T23:28:33.836Z,931.60
2023-03-10T23:29:33.815Z,991.00
2023-03-10T23:30:33.858Z,1020.90
2023-03-10T23:31:33.865Z,965.60
2023-03-10T23:32:33.829Z,991.30
2023-03-10T23:33:33.801Z,1021.10
2023-03-10T23:34:33.786Z,1016.80
2023-03-10T23:35:33.829Z,1033.10
2023-03-10T23:36:33.845Z,991.40
2023-03-10T23:37:33.753Z,1045.00
2023-03-10T23:38:33.683Z,1013.30
2023-03-10T23:39:33.689Z,1037.10
2023-03-10T23:40:33.676Z,1014.20
2023-03-10T23:41:34.007Z,1009.60
2023-03-10T23:42:33.652Z,965.10
2023-03-10T23:43:33.632Z,1001.10
2023-03-10T23:44:33.664Z,1029.30
2023-03-10T23:45:33.686Z,965.30
2023-03-10T23:46:33.609Z,945.80
2023-03-10T23:47:33.759Z,947.30
2023-03-10T23:48:33.778Z,962.30
2023-03-10T23:49:33.676Z,947.00
2023-03-10T23:50:33.711Z,986.80
2023-03-10T23:51:33.682Z,937.00
2023-03-10T23:52:33.723Z,985.70
2023-03-10T23:53:33.658Z,932.10
2023-03-10T23:54:33.668Z,995.70
2023-03-10T23:55:33.647Z,958.80
2023-03-10T23:56:33.624Z,990.80
2023-03-10T23:57:33.664Z,988.80
2023-03-10T23:58:33.642Z,934.60
2023-03-10T23:59:33.645Z,960.50
